Time;durP1;ratioP1;P1;durP2;ratioP2;P2;SDS_P1;SDS_P2;PMS_P1;PMS_P2;Temp;Humidity;BMP_temperature;BMP_pressure;BME280_temperature;BME280_humidity;BME280_pressure;Samples;Min_cycle;Max_cycle;Signal;HPM_P1;HPM_P2
2021/06/09 00:00:09;;;;;;;25.13;22.43;;;18.20;99.90;;;18.07;97.53;98587.56;5046598;28;21286;-64
2021/06/09 00:02:38;;;;;;;25.60;20.77;;;18.20;99.90;;;18.06;97.30;98585.91;5048044;28;20666;-65
2021/06/09 00:05:08;;;;;;;24.00;21.40;;;18.10;99.90;;;18.05;97.64;98592.16;5046896;28;20654;-65
2021/06/09 00:07:36;;;;;;;28.40;22.10;;;18.10;99.90;;;18.03;97.55;98586.19;5044961;28;20674;-65
2021/06/09 00:10:06;;;;;;;23.80;20.70;;;18.20;99.90;;;18.04;97.59;98582.56;5046293;28;20647;-65
2021/06/09 00:12:34;;;;;;;22.37;20.07;;;18.20;99.90;;;18.01;97.06;98583.69;5046204;28;20631;-64
2021/06/09 00:15:06;;;;;;;23.73;20.60;;;18.10;99.90;;;17.99;97.21;98585.63;5049502;28;20642;-64
2021/06/09 00:17:34;;;;;;;22.90;20.50;;;18.10;99.90;;;17.96;97.43;98591.16;5047644;28;20642;-65
2021/06/09 00:20:06;;;;;;;23.63;20.97;;;18.10;99.90;;;17.92;97.18;98589.78;5047145;28;20646;-65
2021/06/09 00:22:34;;;;;;;21.70;19.50;;;18.10;99.90;;;17.92;98.14;98584.53;5048323;28;20651;-65
2021/06/09 00:25:06;;;;;;;24.90;20.10;;;18.00;99.90;;;17.94;97.81;98576.47;5049938;28;21044;-65
2021/06/09 00:27:34;;;;;;;24.80;22.30;;;18.00;99.90;;;17.95;98.08;98586.03;5049114;28;20677;-65
2021/06/09 00:30:06;;;;;;;23.03;20.73;;;18.00;99.90;;;17.96;98.19;98579.78;5044767;28;20636;-65
2021/06/09 00:32:34;;;;;;;23.13;20.73;;;18.00;99.90;;;17.97;98.43;98581.47;5046285;28;20633;-65
2021/06/09 00:35:03;;;;;;;22.07;19.90;;;18.10;99.90;;;17.98;98.27;98583.13;5046093;28;20756;-65
2021/06/09 00:37:31;;;;;;;22.60;20.40;;;18.00;99.90;;;18.00;98.57;98578.56;5048876;28;21249;-65
2021/06/09 00:39:59;;;;;;;23.57;21.17;;;18.10;99.90;;;17.97;97.50;98578.81;5047241;28;21037;-65
2021/06/09 00:42:28;;;;;;;25.77;21.27;;;18.10;99.90;;;17.92;97.44;98580.19;5044952;28;21219;-65
2021/06/09 00:44:56;;;;;;;23.97;21.37;;;18.00;99.90;;;17.88;97.17;98573.56;5047592;28;20710;-65
2021/06/09 00:47:27;;;;;;;26.00;23.20;;;18.00;99.90;;;17.85;97.00;98581.75;5045581;28;20971;-65
2021/06/09 00:49:55;;;;;;;24.00;21.50;;;17.90;99.90;;;17.81;96.91;98577.69;5048487;28;21080;-64
2021/06/09 00:52:23;;;;;;;23.97;21.30;;;17.90;99.90;;;17.78;97.08;98581.44;5047278;28;20634;-64
2021/06/09 00:54:53;;;;;;;25.43;22.30;;;17.90;99.90;;;17.79;97.17;98582.28;5045901;28;20643;-64
2021/06/09 00:57:24;;;;;;;26.50;23.57;;;17.90;99.90;;;17.79;97.34;98583.09;5047799;28;21279;-64
2021/06/09 00:59:52;;;;;;;26.20;22.57;;;17.90;99.90;;;17.81;97.73;98585.63;5046966;28;21038;-65
2021/06/09 01:02:20;;;;;;;25.00;22.03;;;17.90;99.90;;;17.82;97.91;98585.47;5047652;28;20791;-65
2021/06/09 01:04:49;;;;;;;29.60;24.17;;;17.90;99.90;;;17.83;97.85;98579.25;5047873;28;20645;-65
2021/06/09 01:07:18;;;;;;;28.07;24.77;;;18.00;99.90;;;17.83;98.28;98584.50;5043215;28;20675;-65
2021/06/09 01:09:46;;;;;;;25.50;22.73;;;17.90;99.90;;;17.85;98.39;98587.03;5043147;28;20978;-65
2021/06/09 01:12:15;;;;;;;30.10;24.33;;;17.90;99.90;;;17.89;98.94;98588.38;5047849;28;20700;-65
2021/06/09 01:14:43;;;;;;;26.73;22.33;;;17.90;99.90;;;17.89;98.50;98591.03;5044293;28;20654;-65
2021/06/09 01:17:11;;;;;;;28.50;23.20;;;17.90;99.90;;;17.88;98.44;98592.03;5045031;28;20630;-65
2021/06/09 01:19:39;;;;;;;24.50;21.90;;;18.00;99.90;;;17.86;98.83;98593.94;5048235;28;20636;-65
2021/06/09 01:22:09;;;;;;;29.67;22.90;;;18.00;99.90;;;17.89;98.57;98593.66;5047054;28;20659;-65
2021/06/09 01:24:37;;;;;;;26.67;23.87;;;18.00;99.90;;;17.91;98.83;98583.84;5046713;28;21126;-65
2021/06/09 01:27:06;;;;;;;26.70;23.83;;;18.00;99.90;;;17.92;99.08;98588.97;5048266;28;21062;-65
2021/06/09 01:29:34;;;;;;;26.60;23.77;;;18.00;99.90;;;17.92;98.90;98590.75;5049166;28;20633;-65
2021/06/09 01:32:02;;;;;;;29.20;22.90;;;18.00;99.90;;;17.92;99.21;98588.13;5045080;28;20633;-65
2021/06/09 01:34:31;;;;;;;31.87;24.20;;;18.00;99.90;;;17.92;99.68;98588.97;5059174;28;20756;-64
2021/06/09 01:36:59;;;;;;;27.03;24.10;;;18.00;99.90;;;17.92;99.63;98588.97;5045859;28;20636;-64
2021/06/09 01:39:28;;;;;;;27.17;23.03;;;18.00;99.90;;;17.91;98.24;98584.66;5045217;28;20700;-65
2021/06/09 01:41:56;;;;;;;29.57;24.00;;;18.00;99.90;;;17.90;99.46;98584.78;5047707;28;20653;-65
2021/06/09 01:44:26;;;;;;;34.03;22.80;;;18.10;99.90;;;17.88;98.91;98576.19;5046567;28;20696;-64
2021/06/09 01:46:54;;;;;;;27.13;23.07;;;18.00;99.90;;;17.86;99.22;98580.75;5046162;28;20631;-64
2021/06/09 01:49:22;;;;;;;31.00;23.07;;;18.00;99.90;;;17.84;99.71;98582.69;5045500;28;20695;-65
2021/06/09 01:51:50;;;;;;;25.90;23.10;;;18.00;99.90;;;17.83;99.37;98581.88;5047848;28;20642;-65
2021/06/09 01:54:18;;;;;;;23.67;21.17;;;17.90;99.90;;;17.82;99.34;98582.84;5046695;28;20630;-64
2021/06/09 01:56:48;;;;;;;23.93;21.47;;;18.00;99.90;;;17.81;98.79;98581.16;5047278;28;20743;-65
2021/06/09 01:59:21;;;;;;;25.37;22.70;;;17.90;99.90;;;17.81;98.80;98581.16;5046830;28;20680;-65
2021/06/09 02:01:50;;;;;;;27.50;24.47;;;17.90;99.90;;;17.79;98.86;98585.75;5043249;28;21238;-65
2021/06/09 02:04:19;;;;;;;29.07;24.80;;;17.90;99.90;;;17.76;99.39;98591.31;5045231;28;20658;-65
2021/06/09 02:06:47;;;;;;;29.87;25.40;;;17.80;99.90;;;17.76;99.17;98585.19;5048416;28;20655;-65
2021/06/09 02:09:15;;;;;;;27.77;24.80;;;17.80;99.90;;;17.77;99.35;98584.22;5050931;28;20976;-65
2021/06/09 02:11:48;;;;;;;31.57;25.20;;;17.80;99.90;;;17.78;99.36;98581.44;5052759;28;20646;-65
2021/06/09 02:14:18;;;;;;;28.53;24.00;;;17.80;99.90;;;17.79;99.43;98577.00;5051430;28;20633;-65
2021/06/09 02:16:49;;;;;;;24.87;22.17;;;17.90;99.90;;;17.81;99.28;98575.88;5050506;28;20707;-65
2021/06/09 02:19:18;;;;;;;25.70;22.93;;;17.90;99.90;;;17.82;99.30;98566.19;5048940;28;20639;-65
2021/06/09 02:21:46;;;;;;;27.00;23.80;;;17.90;99.90;;;17.83;99.61;98568.69;5052105;28;20639;-64
2021/06/09 02:24:14;;;;;;;23.43;21.10;;;17.90;99.90;;;17.84;99.52;98574.78;5049126;28;20639;-64
2021/06/09 02:26:43;;;;;;;24.47;21.97;;;17.90;99.90;;;17.83;99.12;98567.81;5048338;28;20639;-64
2021/06/09 02:29:14;;;;;;;25.23;22.27;;;17.90;99.90;;;17.82;99.08;98576.75;5049302;28;21221;-64
2021/06/09 02:31:47;;;;;;;26.83;23.90;;;17.90;99.90;;;17.82;99.01;98574.91;5051042;28;21178;-65
2021/06/09 02:34:18;;;;;;;24.93;22.33;;;17.90;99.90;;;17.84;99.51;98570.31;5050533;28;20651;-64
2021/06/09 02:36:49;;;;;;;26.73;23.13;;;18.00;99.90;;;17.86;100.00;98567.56;5050979;28;20713;-64
2021/06/09 02:39:19;;;;;;;25.50;22.90;;;17.90;99.90;;;17.89;99.73;98570.78;5050372;28;21037;-65
2021/06/09 02:41:47;;;;;;;25.83;22.57;;;18.00;99.90;;;17.91;99.54;98568.00;5050029;28;21479;-65
2021/06/09 02:44:18;;;;;;;27.07;23.23;;;18.00;99.90;;;17.90;100.00;98555.75;5049550;28;20661;-64
2021/06/09 02:46:50;;;;;;;26.60;22.93;;;18.00;99.90;;;17.90;99.74;98559.22;5048443;28;20630;-65
2021/06/09 02:49:22;;;;;;;27.67;24.30;;;18.00;99.90;;;17.92;99.60;98563.41;5048670;28;20657;-65
2021/06/09 02:52:00;;;;;;;27.53;24.53;;;18.00;99.90;;;17.94;99.71;98564.09;5051316;28;20645;-65
2021/06/09 02:54:39;;;;;;;27.10;24.13;;;18.00;99.90;;;17.98;99.84;98567.28;5046778;28;21266;-65
2021/06/09 02:57:21;;;;;;;27.33;24.10;;;18.00;99.90;;;17.96;99.64;98558.66;5048173;28;20659;-64
2021/06/09 02:59:59;;;;;;;26.70;23.90;;;18.00;99.90;;;17.96;99.66;98561.31;5050962;28;20748;-65
2021/06/09 03:02:41;;;;;;;25.03;22.33;;;18.00;99.90;;;17.98;99.46;98560.22;5046769;28;20737;-65
2021/06/09 03:05:21;;;;;;;25.27;22.67;;;18.00;99.90;;;18.00;100.00;98565.34;5047064;28;20639;-64
2021/06/09 03:08:06;;;;;;;25.77;22.97;;;18.10;99.90;;;18.02;100.00;98566.03;5049794;28;21240;-65
2021/06/09 03:10:52;;;;;;;27.07;24.17;;;18.10;99.90;;;18.03;100.00;98568.53;5050110;28;20991;-65
2021/06/09 03:13:34;;;;;;;27.40;23.90;;;18.10;99.90;;;18.04;100.00;98561.44;5049249;28;20623;-65
2021/06/09 03:16:10;;;;;;;27.00;24.10;;;18.10;99.90;;;18.07;100.00;98563.81;5048100;28;20677;-64
2021/06/09 03:18:44;;;;;;;27.37;23.70;;;18.10;99.90;;;18.08;100.00;98558.38;5046605;28;20646;-65
2021/06/09 03:21:19;;;;;;;27.43;23.23;;;18.20;99.90;;;18.10;99.97;98568.81;5049441;28;21042;-64
2021/06/09 03:24:03;;;;;;;30.77;24.63;;;18.20;99.90;;;18.11;100.00;98557.28;5048226;28;21270;-65
2021/06/09 03:26:43;;;;;;;26.77;23.87;;;18.20;99.90;;;18.12;99.87;98553.69;5047000;28;20700;-65
2021/06/09 03:29:27;;;;;;;27.87;24.87;;;18.20;99.90;;;18.14;100.00;98559.69;5049748;28;20705;-65
2021/06/09 03:32:00;;;;;;;27.13;22.90;;;18.20;99.90;;;18.17;100.00;98564.69;5050437;28;20674;-65
2021/06/09 03:34:36;;;;;;;27.30;24.33;;;18.20;99.90;;;18.17;100.00;98567.31;5048338;28;20646;-65
2021/06/09 03:37:08;;;;;;;28.60;24.17;;;18.30;99.90;;;18.19;100.00;98566.22;5048724;28;20674;-65
2021/06/09 03:39:40;;;;;;;27.03;24.13;;;18.30;99.90;;;18.20;100.00;98557.31;5050561;28;20681;-65
2021/06/09 03:42:11;;;;;;;28.33;24.20;;;18.30;99.90;;;18.22;100.00;98563.31;5049355;28;20732;-65
2021/06/09 03:44:46;;;;;;;26.43;23.30;;;18.30;99.90;;;18.24;100.00;98563.16;5043697;28;20767;-65
2021/06/09 03:47:18;;;;;;;28.30;23.70;;;18.30;99.90;;;18.23;100.00;98567.59;5048961;28;20686;-65
2021/06/09 03:49:49;;;;;;;26.63;23.47;;;18.30;99.90;;;18.25;100.00;98573.59;5046465;28;20630;-65
2021/06/09 03:52:19;;;;;;;37.77;25.80;;;18.40;99.90;;;18.27;100.00;98573.44;5049222;28;20669;-64
2021/06/09 03:54:53;;;;;;;37.63;25.20;;;18.40;99.90;;;18.28;100.00;98577.72;5048826;28;20986;-64
2021/06/09 03:57:22;;;;;;;31.40;24.77;;;18.40;99.90;;;18.29;100.00;98571.50;5043630;28;21717;-66
2021/06/09 03:59:52;;;;;;;34.80;24.50;;;18.40;99.90;;;18.30;99.55;98576.63;5049605;28;20630;-65
2021/06/09 04:02:24;;;;;;;35.20;25.40;;;18.40;99.90;;;18.30;100.00;98576.63;5048997;28;20636;-64
2021/06/09 04:04:54;;;;;;;35.10;25.87;;;18.40;99.90;;;18.30;100.00;98576.63;5049517;28;20713;-64
2021/06/09 04:07:24;;;;;;;36.53;26.60;;;18.40;99.90;;;18.32;99.77;98577.31;5041974;28;20646;-65
2021/06/09 04:09:54;;;;;;;35.23;26.80;;;18.40;99.90;;;18.32;100.00;98576.50;5047881;28;20706;-65
2021/06/09 04:12:23;;;;;;;36.40;27.30;;;18.40;99.90;;;18.34;100.00;98578.00;5048532;28;20729;-65
2021/06/09 04:14:53;;;;;;;32.30;25.37;;;18.40;99.90;;;18.36;100.00;98572.56;5044692;28;20732;-65
2021/06/09 04:17:27;;;;;;;38.80;24.93;;;18.40;99.90;;;18.32;99.63;98579.13;5047117;28;20694;-64
2021/06/09 04:20:02;;;;;;;36.00;24.60;;;18.50;99.90;;;18.34;100.00;98579.81;5043193;28;20628;-65
2021/06/09 04:22:30;;;;;;;35.37;24.83;;;18.50;99.90;;;18.35;100.00;98581.50;5044831;28;20652;-64
2021/06/09 04:24:58;;;;;;;39.93;26.97;;;18.50;99.90;;;18.36;100.00;98575.22;5044711;28;20734;-65
2021/06/09 04:27:30;;;;;;;36.23;25.40;;;18.40;99.90;;;18.37;100.00;98574.25;5046432;28;20659;-64
2021/06/09 04:29:58;;;;;;;37.97;25.80;;;18.50;99.90;;;18.37;100.00;98571.59;5044150;28;20727;-64
2021/06/09 04:32:28;;;;;;;38.97;27.00;;;18.50;99.90;;;18.37;100.00;98574.25;5049276;28;20638;-64
2021/06/09 04:34:59;;;;;;;44.40;26.80;;;18.50;99.90;;;18.38;100.00;98570.66;5047207;28;20691;-64
2021/06/09 04:37:29;;;;;;;39.40;25.80;;;18.50;99.90;;;18.40;100.00;98572.16;5039492;28;20647;-65
2021/06/09 04:39:57;;;;;;;38.57;26.93;;;18.50;99.90;;;18.44;100.00;98571.72;5044919;28;20634;-65
2021/06/09 04:42:26;;;;;;;41.27;27.57;;;18.50;99.90;;;18.47;100.00;98567.97;5044057;28;20650;-64
2021/06/09 04:44:54;;;;;;;41.57;28.00;;;18.50;99.90;;;18.51;100.00;98583.41;5043382;28;20646;-65
2021/06/09 04:47:23;;;;;;;40.10;28.17;;;18.60;99.90;;;18.55;100.00;98576.88;5044592;28;21190;-65
2021/06/09 04:49:52;;;;;;;41.63;28.63;;;18.60;99.90;;;18.58;100.00;98571.31;5047311;28;20646;-65
2021/06/09 04:52:20;;;;;;;45.47;29.30;;;18.60;99.90;;;18.59;99.50;98572.97;5047865;28;21056;-65
2021/06/09 04:54:49;;;;;;;42.37;30.07;;;18.70;99.90;;;18.65;100.00;98568.91;5057672;28;20629;-65
2021/06/09 04:57:17;;;;;;;37.97;29.20;;;18.70;99.90;;;18.70;99.70;98572.81;5045044;28;20688;-65
2021/06/09 04:59:45;;;;;;;42.40;28.67;;;18.70;99.90;;;18.75;99.79;98586.44;5039306;28;21072;-68
2021/06/09 05:02:13;;;;;;;44.93;30.57;;;18.80;99.90;;;18.80;100.00;98570.13;5034216;28;20634;-64
2021/06/09 05:04:41;;;;;;;40.40;29.23;;;18.80;99.90;;;18.84;100.00;98577.66;5037313;28;20664;-64
2021/06/09 05:07:11;;;;;;;41.80;29.27;;;18.90;99.90;;;18.87;100.00;98581.78;5041521;28;20707;-63
2021/06/09 05:09:39;;;;;;;45.30;30.30;;;18.90;99.90;;;18.90;100.00;98582.34;5041503;28;20638;-64
2021/06/09 05:12:18;;;;;;;47.67;31.50;;;19.00;99.90;;;18.91;100.00;98579.56;5039929;28;21225;-65
2021/06/09 05:14:50;;;;;;;41.10;29.70;;;19.00;99.90;;;18.96;100.00;98579.13;5040599;28;20635;-64
2021/06/09 05:17:24;;;;;;;42.63;30.07;;;19.00;99.90;;;19.00;99.86;98580.50;5042871;28;20696;-64
2021/06/09 05:19:53;;;;;;;43.33;30.23;;;19.00;99.90;;;19.05;100.00;98580.94;5038368;28;20658;-65
2021/06/09 05:22:27;;;;;;;49.77;34.87;;;19.10;99.90;;;19.09;99.58;98585.81;5041289;28;21211;-64
2021/06/09 05:24:57;;;;;;;51.23;35.50;;;19.10;99.90;;;19.10;99.91;98579.53;5041813;28;20665;-63
2021/06/09 05:27:26;;;;;;;44.97;34.57;;;19.20;99.90;;;19.10;99.41;98579.53;5041046;28;20646;-64
2021/06/09 05:29:56;;;;;;;46.03;34.97;;;19.20;99.90;;;19.14;100.00;98585.34;5043313;28;20646;-64
2021/06/09 05:32:27;;;;;;;48.07;33.97;;;19.20;99.90;;;19.13;98.58;98584.50;5039951;28;21091;-64
2021/06/09 05:34:57;;;;;;;48.70;34.00;;;19.10;99.90;;;19.15;100.00;98582.56;5041533;28;20671;-64
2021/06/09 05:37:29;;;;;;;44.37;32.93;;;19.20;99.90;;;19.15;99.11;98589.66;5046144;28;21034;-64
2021/06/09 05:39:59;;;;;;;46.93;35.03;;;19.20;99.90;;;19.17;99.42;98583.25;5048518;28;20696;-64
2021/06/09 05:42:27;;;;;;;46.93;32.90;;;19.20;99.90;;;19.14;100.00;98587.97;5042325;28;20649;-64
2021/06/09 05:44:55;;;;;;;47.40;35.30;;;19.20;99.90;;;19.12;99.94;98582.84;5042542;28;20663;-64
2021/06/09 05:47:24;;;;;;;45.53;34.50;;;19.20;99.90;;;19.15;99.81;98585.19;5040495;28;20672;-64
2021/06/09 05:50:11;;;;;;;48.83;35.57;;;19.20;99.90;;;19.19;100.00;98589.22;5042103;28;21043;-64
2021/06/09 05:52:41;;;;;;;51.17;35.70;;;19.20;99.90;;;19.24;99.13;98583.50;5043411;28;21153;-64
2021/06/09 05:55:15;;;;;;;49.00;36.67;;;19.20;99.90;;;19.26;99.37;98578.88;5041160;28;20686;-64
2021/06/09 05:57:45;;;;;;;52.03;35.90;;;19.30;99.90;;;19.25;100.00;98585.19;5034328;28;20640;-65
2021/06/09 06:00:19;;;;;;;51.77;36.33;;;19.30;99.90;;;19.27;98.94;98584.03;5033765;28;20668;-64
2021/06/09 06:02:48;;;;;;;51.33;34.90;;;19.30;99.90;;;19.30;99.76;98589.03;5033629;28;20688;-64
2021/06/09 06:05:18;;;;;;;46.93;34.20;;;19.30;99.90;;;19.33;98.97;98590.56;5032518;28;20651;-64
2021/06/09 06:07:48;;;;;;;49.83;34.80;;;19.40;99.90;;;19.30;98.60;98586.38;5032811;28;21211;-64
2021/06/09 06:10:17;;;;;;;50.93;34.90;;;19.30;99.90;;;19.30;99.20;98599.63;5033924;28;21241;-64
2021/06/09 06:12:48;;;;;;;50.60;34.87;;;19.30;99.90;;;19.32;98.56;98600.31;5033940;28;20644;-64
2021/06/09 06:15:17;;;;;;;51.07;35.10;;;19.30;99.90;;;19.31;99.14;98609.22;5032117;28;20680;-64
2021/06/09 06:17:46;;;;;;;52.33;37.17;;;19.40;99.90;;;19.35;98.68;98592.09;5030035;28;20641;-64
2021/06/09 06:20:16;;;;;;;48.60;35.27;;;19.40;99.90;;;19.37;98.29;98598.06;5031119;28;20712;-64
2021/06/09 06:22:48;;;;;;;47.40;35.43;;;19.40;99.90;;;19.41;99.95;98596.81;5032234;28;20710;-64
2021/06/09 06:25:18;;;;;;;45.00;35.20;;;19.40;99.90;;;19.44;99.43;98597.34;5030284;28;21150;-64
2021/06/09 06:27:47;;;;;;;49.73;36.10;;;19.50;99.90;;;19.49;99.83;98605.66;5032120;28;20651;-64
2021/06/09 06:30:18;;;;;;;50.60;35.90;;;19.50;99.90;;;19.46;99.16;98605.94;5032264;28;20635;-64
2021/06/09 06:32:50;;;;;;;48.40;35.80;;;19.50;99.90;;;19.48;98.94;98600.50;5029489;28;20650;-63
2021/06/09 06:35:21;;;;;;;47.93;36.00;;;19.50;99.90;;;19.49;98.14;98602.19;5032162;28;20655;-64
2021/06/09 06:37:52;;;;;;;51.57;37.37;;;19.50;99.90;;;19.50;99.00;98601.19;5033727;28;20640;-64
2021/06/09 06:40:23;;;;;;;63.63;38.30;;;19.50;99.90;;;19.54;98.84;98603.38;5031714;28;21044;-64
2021/06/09 06:42:52;;;;;;;50.80;37.37;;;19.60;99.90;;;19.62;99.52;98603.50;5031520;28;20645;-64
2021/06/09 06:45:24;;;;;;;55.33;37.97;;;19.60;99.90;;;19.66;97.95;98601.38;5031007;28;20699;-64
2021/06/09 06:47:53;;;;;;;55.07;38.70;;;19.60;99.90;;;19.74;99.03;98599.69;5031749;28;20647;-64
2021/06/09 06:50:25;;;;;;;53.03;38.73;;;19.70;99.90;;;19.81;97.45;98597.25;5031567;28;20666;-64
2021/06/09 06:52:56;;;;;;;52.87;36.70;;;19.80;99.90;;;19.91;98.02;98605.00;5032405;28;21203;-64
2021/06/09 06:55:24;;;;;;;55.37;37.60;;;19.90;99.90;;;20.02;98.13;98596.84;5036381;28;20674;-64
2021/06/09 06:57:56;;;;;;;58.17;43.37;;;20.00;99.90;;;20.15;97.11;98602.63;5030923;28;20695;-63
2021/06/09 07:00:25;;;;;;;60.40;46.03;;;20.10;99.90;;;20.26;97.68;98601.56;5032497;28;20672;-63
2021/06/09 07:02:56;;;;;;;46.17;35.40;;;20.20;99.90;;;20.34;97.64;98605.94;5043780;28;21219;-64
2021/06/09 07:05:27;;;;;;;48.23;35.20;;;20.30;99.90;;;20.40;96.97;98597.38;5045894;28;20658;-64
2021/06/09 07:07:58;;;;;;;45.07;34.83;;;20.30;99.90;;;20.45;95.77;98596.94;5046228;28;20645;-64
2021/06/09 07:10:27;;;;;;;46.80;35.80;;;20.40;99.90;;;20.47;95.13;98600.25;5046125;28;22725;-64
2021/06/09 07:12:59;;;;;;;52.10;35.43;;;20.40;99.90;;;20.48;95.09;98608.06;5045410;28;20648;-64
2021/06/09 07:15:28;;;;;;;46.00;34.60;;;20.40;99.90;;;20.51;95.56;98602.44;5047825;28;21408;-64
2021/06/09 07:17:59;;;;;;;46.60;35.93;;;20.50;99.90;;;20.49;95.99;98601.78;5046085;28;20636;-64
2021/06/09 07:20:29;;;;;;;48.03;35.63;;;20.50;99.90;;;20.55;94.69;98601.16;5044343;28;20686;-64
2021/06/09 07:23:00;;;;;;;44.13;33.90;;;20.50;99.90;;;20.66;95.00;98602.69;5061294;28;21135;-64
2021/06/09 07:25:32;;;;;;;42.47;33.73;;;20.60;99.90;;;20.70;94.05;98602.28;5044551;28;21226;-64
2021/06/09 07:28:04;;;;;;;42.43;34.07;;;20.60;99.90;;;20.84;95.22;98607.03;5045139;28;21258;-64
2021/06/09 07:30:36;;;;;;;39.87;32.30;;;20.70;99.90;;;20.92;94.09;98607.09;5048885;28;21248;-63
2021/06/09 07:33:06;;;;;;;38.00;32.60;;;20.80;99.90;;;20.95;93.45;98609.44;5039919;28;20645;-64
2021/06/09 07:35:35;;;;;;;40.83;33.87;;;20.90;99.90;;;21.05;94.05;98607.47;5049782;28;20644;-64
2021/06/09 07:38:10;;;;;;;42.20;33.60;;;21.00;99.90;;;21.23;93.22;98614.41;5043205;28;20668;-64
2021/06/09 07:40:44;;;;;;;39.60;32.90;;;21.10;99.90;;;21.43;92.87;98614.00;5050045;28;20647;-64
2021/06/09 07:43:17;;;;;;;38.63;33.13;;;21.30;99.80;;;21.64;92.43;98619.78;5046605;28;20640;-64
2021/06/09 07:45:48;;;;;;;38.60;32.13;;;21.50;99.90;;;21.69;91.80;98619.31;5047603;28;20672;-64
2021/06/09 07:48:18;;;;;;;41.97;34.07;;;21.50;99.30;;;21.69;92.28;98616.66;5060853;28;20644;-64
2021/06/09 07:50:51;;;;;;;40.70;34.60;;;21.60;99.20;;;21.81;91.34;98624.16;5045410;28;20694;-64
2021/06/09 07:53:22;;;;;;;43.83;35.03;;;21.70;99.10;;;22.04;91.92;98614.56;5046936;28;20645;-64
2021/06/09 07:55:51;;;;;;;44.00;34.30;;;21.80;99.20;;;22.47;91.27;98615.19;5047306;28;21233;-64
2021/06/09 07:58:23;;;;;;;47.67;37.87;;;22.10;99.50;;;23.03;91.36;98624.81;5047140;28;20724;-64
2021/06/09 08:00:58;;;;;;;38.27;33.30;;;22.60;99.70;;;23.09;87.68;98636.63;5045998;28;20642;-64
2021/06/09 08:03:29;;;;;;;38.90;32.07;;;22.70;97.70;;;22.90;87.02;98621.81;5047348;28;20637;-64
2021/06/09 08:05:58;;;;;;;40.03;32.90;;;22.70;96.70;;;22.98;88.64;98629.00;5043327;28;20674;-64
2021/06/09 08:08:28;;;;;;;37.87;33.33;;;22.70;97.60;;;23.24;86.80;98631.28;5048857;28;20672;-64
2021/06/09 08:10:57;;;;;;;36.77;32.13;;;23.00;97.20;;;23.45;86.71;98623.53;5050391;28;20697;-65
2021/06/09 08:13:25;;;;;;;38.25;34.05;;;23.20;96.70;;;23.81;84.50;98635.44;5043847;28;21226;-64
2021/06/09 08:15:54;;;;;;;38.20;33.30;;;23.50;96.10;;;24.02;83.19;98638.34;5048044;28;20636;-64
2021/06/09 08:18:23;;;;;;;36.17;32.20;;;23.70;95.10;;;23.99;83.65;98642.16;5046018;28;20646;-64
2021/06/09 08:21:05;;;;;;;37.70;32.63;;;23.70;95.00;;;24.08;84.87;98643.78;5046057;28;20648;-64
2021/06/09 08:23:36;;;;;;;35.97;31.57;;;23.80;95.10;;;24.14;84.38;98647.59;5041095;28;20636;-64
2021/06/09 08:26:05;;;;;;;36.77;32.57;;;23.90;95.00;;;24.04;83.82;98652.31;5048690;28;20675;-64
2021/06/09 08:28:35;;;;;;;36.27;32.37;;;23.90;94.20;;;23.98;83.22;98647.69;5045626;28;20663;-64
2021/06/09 08:31:05;;;;;;;37.50;33.50;;;23.90;94.20;;;24.04;82.75;98644.31;5045992;28;20757;-64
2021/06/09 08:33:35;;;;;;;34.53;31.07;;;23.90;94.00;;;24.33;83.92;98640.84;5046214;28;20237;-64
2021/06/09 08:36:04;;;;;;;33.60;29.50;;;24.00;94.60;;;24.80;82.94;98644.16;5040821;28;20674;-64
2021/06/09 08:38:35;;;;;;;32.90;29.50;;;24.40;94.70;;;25.08;82.19;98639.94;5043761;28;20751;-64
2021/06/09 08:41:05;;;;;;;32.43;29.10;;;24.70;94.20;;;25.45;78.95;98644.22;5043449;28;20670;-65
2021/06/09 08:43:34;;;;;;;30.80;27.70;;;25.00;92.80;;;25.75;79.36;98643.22;5046344;28;20663;-64
2021/06/09 08:46:03;;;;;;;32.20;29.00;;;25.30;92.60;;;26.03;81.31;98649.56;5046826;28;21118;-64
2021/06/09 08:48:35;;;;;;;31.37;28.40;;;25.60;93.30;;;26.30;78.38;98642.53;5046709;28;20655;-64
2021/06/09 08:51:06;;;;;;;31.33;28.33;;;25.90;92.30;;;26.43;77.42;98641.81;5042251;28;21211;-64
2021/06/09 08:53:42;;;;;;;29.70;26.53;;;26.00;91.10;;;26.57;77.36;98645.28;5046613;28;20639;-63
2021/06/09 08:56:11;;;;;;;28.73;25.93;;;26.20;90.70;;;26.66;76.35;98643.31;5048285;28;20700;-63
2021/06/09 08:58:41;;;;;;;28.83;26.13;;;26.30;89.10;;;26.78;74.48;98647.16;5044954;28;20694;-64
2021/06/09 09:01:11;;;;;;;28.93;26.13;;;26.40;86.40;;;26.86;73.42;98638.97;5043820;28;20636;-63
2021/06/09 09:03:44;;;;;;;26.27;23.87;;;26.60;85.60;;;26.87;73.43;98638.78;5044989;28;20738;-64
2021/06/09 09:06:13;;;;;;;27.73;24.80;;;26.70;83.90;;;27.02;71.99;98644.06;5050342;28;20680;-63
2021/06/09 09:08:43;;;;;;;26.73;24.30;;;26.80;82.30;;;26.87;71.79;98641.44;5044741;28;20744;-64
2021/06/09 09:11:11;;;;;;;25.67;23.20;;;26.70;81.40;;;26.62;71.91;98640.16;5047112;28;20634;-63
2021/06/09 09:13:40;;;;;;;27.53;24.83;;;26.50;80.90;;;26.54;72.18;98642.16;5047265;28;20643;-63
2021/06/09 09:16:09;;;;;;;25.07;22.77;;;26.40;80.80;;;26.83;72.78;98642.03;5040227;28;20642;-63
2021/06/09 09:18:40;;;;;;;25.90;23.40;;;26.60;81.60;;;26.91;71.18;98636.56;5041433;28;20867;-64
2021/06/09 09:21:10;;;;;;;28.53;25.90;;;26.70;80.50;;;27.08;72.93;98639.59;5045885;28;20633;-64
2021/06/09 09:23:47;;;;;;;28.57;25.80;;;26.80;82.90;;;27.22;73.39;98643.22;5042483;28;21901;-64
2021/06/09 09:26:26;;;;;;;27.27;24.70;;;26.90;84.10;;;27.20;73.89;98651.44;5042024;28;21217;-64
2021/06/09 09:29:14;;;;;;;30.67;27.40;;;27.00;84.70;;;26.84;72.90;98644.50;5048896;28;21163;-64
2021/06/09 09:31:53;;;;;;;27.05;24.55;;;26.70;81.20;;;26.70;74.19;98637.38;5039628;28;21322;-64
2021/06/09 09:34:33;;;;;;;27.37;24.67;;;26.60;82.40;;;26.81;74.94;98642.22;5046116;28;20691;-64
2021/06/09 09:37:12;;;;;;;27.10;24.63;;;26.60;84.50;;;27.28;74.00;98651.28;5047144;28;20633;-64
2021/06/09 09:39:44;;;;;;;27.73;25.13;;;27.00;84.70;;;27.55;70.70;98647.81;5046194;28;20661;-64
2021/06/09 09:42:33;;;;;;;24.30;22.03;;;27.20;80.90;;;27.78;71.23;98646.47;5044485;28;21013;-63
2021/06/09 09:45:29;;;;;;;24.13;22.03;;;27.40;81.70;;;28.07;72.46;98652.41;5037572;28;20726;-64
2021/06/09 09:48:16;;;;;;;26.10;23.75;;;27.70;82.60;;;28.10;72.06;98644.00;5014857;28;20753;-64
2021/06/09 09:50:46;;;;;;;25.90;23.50;;;27.80;81.30;;;28.02;73.86;98644.16;5048900;28;20233;-64
2021/06/09 09:53:19;;;;;;;25.47;23.10;;;27.80;84.20;;;27.86;71.12;98642.81;5049030;28;20641;-64
2021/06/09 09:56:08;;;;;;;25.90;23.50;;;27.70;78.90;;;27.92;72.29;98639.31;5047266;28;20628;-64
2021/06/09 09:58:40;;;;;;;26.02;23.73;;;27.70;81.00;;;27.66;70.90;98629.31;5048945;28;20752;-64
2021/06/09 10:01:12;;;;;;;24.80;22.67;;;27.50;77.50;;;27.57;71.64;98629.66;5050012;28;20206;-64
2021/06/09 10:03:43;;;;;;;25.07;22.87;;;27.40;79.90;;;27.81;71.63;98621.94;5043156;28;20636;-64
2021/06/09 10:06:26;;;;;;;24.83;22.53;;;27.60;79.80;;;28.10;72.06;98617.16;5048987;28;21105;-64
2021/06/09 10:08:56;;;;;;;25.27;22.90;;;27.80;79.30;;;28.27;68.43;98623.81;5047810;28;20644;-64
2021/06/09 10:11:27;;;;;;;24.90;22.43;;;27.90;76.30;;;28.32;68.07;98615.16;5050783;28;20636;-64
2021/06/09 10:13:55;;;;;;;22.90;20.80;;;28.00;75.40;;;28.50;70.48;98616.22;5049774;28;20640;-64
2021/06/09 10:16:32;;;;;;;25.03;22.63;;;28.10;78.40;;;28.74;71.33;98618.38;5050114;28;21021;-63
2021/06/09 10:19:04;;;;;;;24.80;22.60;;;28.40;80.20;;;28.89;68.82;98616.31;5048784;28;20998;-64
2021/06/09 10:21:33;;;;;;;25.77;23.47;;;28.50;77.50;;;28.63;69.38;98614.38;5050241;28;20667;-64